createdAt,value
2017-07-25T00:00:33.882Z,0
2017-07-25T00:01:43.924Z,0
2017-07-25T00:02:54.280Z,0
2017-07-25T00:04:04.672Z,0
2017-07-25T00:05:15.052Z,0
2017-07-25T00:06:25.438Z,0
2017-07-25T00:07:35.793Z,0
2017-07-25T00:08:46.132Z,0
2017-07-25T00:09:56.472Z,0
2017-07-25T00:11:06.498Z,0
2017-07-25T00:12:16.881Z,0
2017-07-25T00:13:27.223Z,0
2017-07-25T00:14:37.572Z,0
2017-07-25T00:15:47.934Z,0
2017-07-25T00:16:58.283Z,0
2017-07-25T00:18:08.310Z,0
2017-07-25T00:19:18.029Z,0
2017-07-25T00:20:28.057Z,0
2017-07-25T00:21:38.089Z,0
2017-07-25T00:22:48.126Z,0
2017-07-25T00:23:58.476Z,0
2017-07-25T00:25:08.835Z,0
2017-07-25T00:26:18.885Z,0
2017-07-25T00:27:29.219Z,0
2017-07-25T00:28:39.249Z,0
2017-07-25T00:29:49.587Z,0
2017-07-25T00:30:59.938Z,0
2017-07-25T00:32:10.294Z,0
2017-07-25T00:33:20.636Z,0
2017-07-25T00:34:30.673Z,0
2017-07-25T00:35:40.712Z,0
2017-07-25T00:36:51.049Z,0
2017-07-25T00:38:01.390Z,0
2017-07-25T00:39:11.431Z,0
2017-07-25T00:40:21.798Z,0
2017-07-25T00:41:31.820Z,0
2017-07-25T00:42:42.172Z,0
2017-07-25T00:43:52.516Z,0
2017-07-25T00:45:02.550Z,0
2017-07-25T00:46:12.890Z,0
2017-07-25T00:47:22.973Z,0
2017-07-25T00:48:33.395Z,0
2017-07-25T00:49:43.729Z,0
2017-07-25T00:50:54.075Z,0
2017-07-25T00:52:04.426Z,0
2017-07-25T00:53:14.796Z,0
2017-07-25T00:54:25.151Z,0
2017-07-25T00:55:35.181Z,0
2017-07-25T00:56:45.224Z,0
2017-07-25T00:57:55.549Z,0
2017-07-25T00:59:05.916Z,0
2017-07-25T01:00:16.257Z,0
2017-07-25T01:01:26.285Z,0
2017-07-25T01:02:36.642Z,0
2017-07-25T01:03:46.977Z,0
2017-07-25T01:04:57.324Z,0
2017-07-25T01:06:07.362Z,0
2017-07-25T01:07:17.707Z,0
2017-07-25T01:08:28.044Z,0
2017-07-25T01:09:38.392Z,0
2017-07-25T01:10:48.791Z,0
2017-07-25T01:11:59.115Z,0
2017-07-25T01:13:09.456Z,0
2017-07-25T01:14:19.809Z,0
2017-07-25T01:15:29.855Z,0
2017-07-25T01:16:39.882Z,0
2017-07-25T01:17:50.371Z,0
2017-07-25T01:19:00.398Z,0
2017-07-25T01:20:10.742Z,0
2017-07-25T01:21:20.784Z,0
2017-07-25T01:22:31.185Z,0
2017-07-25T01:23:41.214Z,0
2017-07-25T01:24:51.546Z,0
2017-07-25T01:26:01.877Z,0
2017-07-25T01:27:11.920Z,0
2017-07-25T01:28:22.307Z,0
2017-07-25T01:29:32.340Z,0
2017-07-25T01:30:42.062Z,0
2017-07-25T01:31:52.402Z,0
2017-07-25T01:33:02.451Z,0
2017-07-25T01:34:12.833Z,0
2017-07-25T01:35:23.185Z,0
2017-07-25T01:36:33.553Z,0
2017-07-25T01:37:43.593Z,0
2017-07-25T01:38:53.937Z,0
2017-07-25T01:40:04.291Z,0
2017-07-25T01:41:14.643Z,0
2017-07-25T01:42:24.984Z,0
2017-07-25T01:43:34.699Z,0
2017-07-25T01:44:44.734Z,0
2017-07-25T01:45:54.766Z,0
2017-07-25T01:47:04.815Z,0
2017-07-25T01:48:15.166Z,0
2017-07-25T01:49:25.515Z,0
2017-07-25T01:50:35.230Z,0
2017-07-25T01:51:45.587Z,0
2017-07-25T01:52:55.924Z,0
2017-07-25T01:54:05.967Z,0
2017-07-25T01:55:15.758Z,0
2017-07-25T01:56:25.788Z,0
2017-07-25T01:57:36.179Z,0
2017-07-25T01:58:46.514Z,0
2017-07-25T01:59:56.842Z,0
2017-07-25T02:01:07.183Z,0
2017-07-25T02:02:17.509Z,0
2017-07-25T02:03:27.606Z,0
2017-07-25T02:04:37.957Z,0
2017-07-25T02:05:47.990Z,0
2017-07-25T02:06:58.352Z,0
2017-07-25T02:08:08.694Z,0
2017-07-25T02:09:18.788Z,0
2017-07-25T02:10:28.838Z,0
2017-07-25T02:11:39.180Z,0
2017-07-25T02:12:49.528Z,0
2017-07-25T02:13:59.859Z,0
2017-07-25T02:15:10.263Z,0
2017-07-25T02:16:20.613Z,0
2017-07-25T02:17:30.960Z,0
2017-07-25T02:18:40.975Z,0
2017-07-25T02:19:51.328Z,0
2017-07-25T02:21:01.401Z,0
2017-07-25T02:22:11.761Z,0
2017-07-25T02:23:22.089Z,0
2017-07-25T02:24:32.435Z,0
2017-07-25T02:25:42.782Z,0
2017-07-25T02:26:53.169Z,0
2017-07-25T02:28:03.509Z,0
2017-07-25T02:29:13.858Z,0
2017-07-25T02:30:24.207Z,0
2017-07-25T02:31:34.546Z,0
2017-07-25T02:32:44.632Z,0
2017-07-25T02:33:54.969Z,0
2017-07-25T02:35:05.299Z,0
2017-07-25T02:36:15.650Z,0
2017-07-25T02:37:25.674Z,0
2017-07-25T02:38:36.081Z,0
2017-07-25T02:39:46.107Z,0
2017-07-25T02:40:56.447Z,0
2017-07-25T02:42:06.778Z,0
2017-07-25T02:43:16.815Z,0
2017-07-25T02:44:27.218Z,0
2017-07-25T02:45:37.271Z,0
2017-07-25T02:46:47.619Z,0
2017-07-25T02:47:57.673Z,0
2017-07-25T02:49:08.016Z,0
2017-07-25T02:50:18.357Z,0
2017-07-25T02:51:28.724Z,0
2017-07-25T02:52:38.749Z,0
2017-07-25T02:53:48.780Z,0
2017-07-25T02:54:58.487Z,0
2017-07-25T02:56:08.552Z,0
2017-07-25T02:57:18.902Z,0
2017-07-25T02:58:29.232Z,0
2017-07-25T02:59:39.577Z,0
2017-07-25T03:00:49.917Z,0
2017-07-25T03:01:59.977Z,0
2017-07-25T03:33:22.347Z,5
2017-07-25T03:34:32.676Z,5
2017-07-25T03:35:42.719Z,5
2017-07-25T03:36:52.759Z,10
2017-07-25T03:38:02.788Z,10
2017-07-25T03:39:12.876Z,10
2017-07-25T03:40:23.222Z,10
2017-07-25T03:41:33.261Z,15
2017-07-25T03:42:43.582Z,15
2017-07-25T03:43:53.917Z,15
2017-07-25T03:45:04.247Z,15
2017-07-25T03:46:14.586Z,20
2017-07-25T03:47:24.935Z,20
2017-07-25T03:48:35.296Z,20
2017-07-25T03:49:45.624Z,25
2017-07-25T03:50:56.017Z,25
2017-07-25T03:52:06.360Z,25
2017-07-25T03:53:16.699Z,30
2017-07-25T03:54:27.039Z,30
2017-07-25T03:55:37.395Z,30
2017-07-25T03:56:48.031Z,35
2017-07-25T03:57:58.359Z,35
2017-07-25T03:59:08.705Z,35
2017-07-25T04:00:18.739Z,35
2017-07-25T04:01:29.080Z,40
2017-07-25T04:02:39.475Z,40
2017-07-25T04:03:49.527Z,45
2017-07-25T04:04:59.549Z,45
2017-07-25T04:06:09.583Z,45
2017-07-25T04:07:19.915Z,50
2017-07-25T04:08:30.330Z,50
2017-07-25T04:09:40.690Z,55
2017-07-25T04:10:51.036Z,55
2017-07-25T04:12:01.071Z,60
2017-07-25T04:13:11.422Z,60
2017-07-25T04:14:21.814Z,65
2017-07-25T04:15:32.173Z,65
2017-07-25T04:16:42.520Z,65
2017-07-25T04:17:52.574Z,75
2017-07-25T04:19:02.922Z,80
2017-07-25T04:20:13.286Z,85
2017-07-25T04:21:23.634Z,90
2017-07-25T04:22:34.005Z,95
2017-07-25T04:23:44.030Z,95
2017-07-25T04:24:54.387Z,100
2017-07-25T04:26:04.734Z,105
2017-07-25T04:27:14.770Z,105
2017-07-25T04:28:25.133Z,100
2017-07-25T04:29:35.481Z,100
2017-07-25T04:30:45.832Z,100
2017-07-25T04:31:55.605Z,105
2017-07-25T04:33:05.659Z,105
2017-07-25T04:34:16.013Z,110
2017-07-25T04:35:26.033Z,105
2017-07-25T04:36:36.380Z,105
2017-07-25T04:37:46.487Z,105
2017-07-25T04:38:56.841Z,105
2017-07-25T04:40:06.886Z,110
2017-07-25T04:41:17.234Z,120
2017-07-25T04:42:27.275Z,250
2017-07-25T04:43:37.657Z,325
2017-07-25T04:44:48.014Z,350
2017-07-25T04:45:58.368Z,345
2017-07-25T04:47:08.704Z,175
2017-07-25T04:48:19.042Z,165
2017-07-25T04:49:29.464Z,145
2017-07-25T04:50:39.813Z,245
2017-07-25T04:51:50.153Z,175
2017-07-25T04:53:00.487Z,270
2017-07-25T04:54:10.840Z,370
2017-07-25T04:55:21.224Z,430
2017-07-25T04:56:31.273Z,490
2017-07-25T04:57:41.612Z,475
2017-07-25T04:58:51.563Z,490
2017-07-25T05:00:01.901Z,495
2017-07-25T05:01:11.933Z,480
2017-07-25T05:02:22.288Z,490
2017-07-25T05:03:32.617Z,450
2017-07-25T05:04:42.653Z,440
2017-07-25T05:05:52.695Z,440
2017-07-25T05:07:02.776Z,490
2017-07-25T05:08:13.118Z,450
2017-07-25T05:09:23.460Z,420
2017-07-25T05:10:33.498Z,425
2017-07-25T05:11:43.865Z,440
2017-07-25T05:12:53.639Z,525
2017-07-25T05:14:03.963Z,510
2017-07-25T05:15:14.312Z,515
2017-07-25T05:16:24.660Z,495
2017-07-25T05:17:35.009Z,525
2017-07-25T05:18:45.361Z,530
2017-07-25T05:19:55.702Z,535
2017-07-25T05:21:06.043Z,510
2017-07-25T05:22:16.399Z,505
2017-07-25T05:23:26.770Z,480
2017-07-25T05:24:37.172Z,440
2017-07-25T05:25:47.520Z,435
2017-07-25T05:26:57.556Z,400
2017-07-25T05:28:07.884Z,365
2017-07-25T05:29:18.231Z,330
2017-07-25T05:30:28.338Z,400
2017-07-25T05:31:38.688Z,425
2017-07-25T05:32:49.027Z,445
2017-07-25T05:33:59.377Z,435
2017-07-25T05:35:09.403Z,420
2017-07-25T05:36:19.745Z,330
2017-07-25T05:37:29.472Z,350
2017-07-25T05:38:39.514Z,300
2017-07-25T05:39:49.855Z,470
2017-07-25T05:40:59.907Z,480
2017-07-25T05:42:10.303Z,480
2017-07-25T05:43:20.665Z,475
2017-07-25T05:44:30.697Z,470
2017-07-25T05:45:40.732Z,465
2017-07-25T05:46:51.080Z,455
2017-07-25T05:48:01.425Z,455
2017-07-25T05:49:11.768Z,440
2017-07-25T05:50:22.121Z,435
2017-07-25T05:51:32.160Z,430
2017-07-25T05:52:42.194Z,425
2017-07-25T05:53:52.564Z,415
2017-07-25T05:55:02.890Z,410
2017-07-25T05:56:12.611Z,410
2017-07-25T05:57:22.972Z,385
2017-07-25T05:58:33.310Z,385
2017-07-25T05:59:43.398Z,395
2017-07-25T06:00:53.763Z,390
2017-07-25T06:02:04.095Z,400
2017-07-25T06:03:14.441Z,345
2017-07-25T06:04:24.799Z,335
2017-07-25T06:05:34.875Z,350
2017-07-25T06:06:45.231Z,380
2017-07-25T06:07:55.592Z,375
2017-07-25T06:09:05.935Z,370
2017-07-25T06:10:16.280Z,360
2017-07-25T06:11:26.363Z,355
2017-07-25T06:12:36.726Z,360
2017-07-25T06:13:47.066Z,355
2017-07-25T06:14:57.409Z,300
2017-07-25T06:16:07.760Z,210
2017-07-25T06:17:17.530Z,155
2017-07-25T06:18:27.881Z,160
2017-07-25T06:19:37.287Z,155
2017-07-25T06:20:47.617Z,160
2017-07-25T06:21:57.345Z,165
2017-07-25T06:23:07.767Z,170
2017-07-25T06:24:17.183Z,190
2017-07-25T06:25:27.548Z,210
2017-07-25T06:26:37.908Z,210
2017-07-25T06:27:47.928Z,215
2017-07-25T06:28:58.319Z,215
2017-07-25T06:30:08.037Z,215
2017-07-25T06:31:18.082Z,210
2017-07-25T06:32:28.436Z,205
2017-07-25T06:33:38.790Z,200
2017-07-25T06:34:48.539Z,190
2017-07-25T06:35:59.126Z,180
2017-07-25T06:37:09.178Z,185
2017-07-25T06:38:19.528Z,195
2017-07-25T06:39:29.875Z,220
2017-07-25T06:40:40.288Z,245
2017-07-25T06:41:50.024Z,250
2017-07-25T06:43:00.390Z,240
2017-07-25T06:44:10.738Z,235
2017-07-25T06:45:21.085Z,240
2017-07-25T06:46:31.477Z,235
2017-07-25T06:47:41.840Z,235
2017-07-25T06:48:52.180Z,240
2017-07-25T06:50:02.527Z,245
2017-07-25T06:51:12.878Z,235
2017-07-25T06:52:22.954Z,230
2017-07-25T06:53:33.349Z,220
2017-07-25T06:54:43.390Z,220
2017-07-25T06:55:53.754Z,220
2017-07-25T06:57:03.797Z,230
2017-07-25T06:58:13.888Z,220
2017-07-25T06:59:24.250Z,215
2017-07-25T07:00:34.612Z,220
2017-07-25T07:01:44.658Z,215
2017-07-25T07:02:55.009Z,190
2017-07-25T07:04:05.098Z,205
2017-07-25T07:05:15.132Z,200
2017-07-25T07:06:24.858Z,195
2017-07-25T07:07:34.906Z,195
2017-07-25T07:08:45.258Z,190
2017-07-25T07:09:55.666Z,190
2017-07-25T07:11:05.722Z,195
2017-07-25T07:12:15.775Z,190
2017-07-25T07:13:26.113Z,190
2017-07-25T07:14:36.473Z,190
2017-07-25T07:15:46.864Z,185
2017-07-25T07:16:57.211Z,185
2017-07-25T07:18:07.563Z,190
2017-07-25T07:19:17.604Z,190
2017-07-25T07:20:27.674Z,200
2017-07-25T07:21:37.868Z,200
2017-07-25T07:22:48.224Z,200
2017-07-25T07:23:58.567Z,200
2017-07-25T07:25:08.966Z,200
2017-07-25T07:26:19.317Z,190
2017-07-25T07:27:29.359Z,170
2017-07-25T07:28:39.736Z,180
2017-07-25T07:29:50.075Z,180
2017-07-25T07:31:00.434Z,185
2017-07-25T07:32:10.786Z,195
2017-07-25T07:33:21.143Z,200
2017-07-25T07:34:31.495Z,200
2017-07-25T07:35:41.839Z,200
2017-07-25T07:36:52.194Z,200
2017-07-25T07:38:01.916Z,195
2017-07-25T07:39:11.999Z,200
2017-07-25T07:40:22.333Z,205
2017-07-25T07:41:32.674Z,190
2017-07-25T07:42:42.406Z,210
2017-07-25T07:43:52.758Z,220
2017-07-25T07:45:02.839Z,220
2017-07-25T07:46:12.871Z,220
2017-07-25T07:47:23.229Z,220
2017-07-25T07:48:33.563Z,220
2017-07-25T07:49:43.602Z,215
2017-07-25T07:50:54.004Z,220
2017-07-25T07:52:04.386Z,220
2017-07-25T07:53:14.732Z,225
2017-07-25T07:54:25.101Z,230
2017-07-25T07:55:35.144Z,230
2017-07-25T07:56:45.502Z,235
2017-07-25T07:57:54.904Z,250
2017-07-25T07:59:05.276Z,230
2017-07-25T08:00:15.638Z,210
2017-07-25T08:01:26.017Z,255
2017-07-25T08:02:36.418Z,260
2017-07-25T08:03:46.771Z,240
2017-07-25T08:04:56.490Z,240
2017-07-25T08:06:06.548Z,220
2017-07-25T08:07:16.914Z,215
2017-07-25T08:08:27.321Z,235
2017-07-25T08:09:37.684Z,250
2017-07-25T08:10:47.423Z,265
2017-07-25T08:11:57.447Z,270
2017-07-25T08:13:07.491Z,295
2017-07-25T08:14:17.892Z,300
2017-07-25T08:15:27.915Z,235
2017-07-25T08:16:38.308Z,240
2017-07-25T08:17:48.669Z,260
2017-07-25T08:18:58.734Z,245
2017-07-25T08:20:09.152Z,250
2017-07-25T08:21:19.200Z,225
2017-07-25T08:22:29.552Z,225
2017-07-25T08:23:39.898Z,245
2017-07-25T08:24:49.614Z,245
2017-07-25T08:26:00.021Z,245
2017-07-25T08:27:10.374Z,245
2017-07-25T08:28:20.753Z,230
2017-07-25T08:29:31.116Z,270
2017-07-25T08:30:41.486Z,225
2017-07-25T08:31:51.890Z,225
2017-07-25T08:33:02.242Z,215
2017-07-25T08:34:12.267Z,285
2017-07-25T08:35:22.604Z,235
2017-07-25T08:36:32.648Z,270
2017-07-25T08:37:42.753Z,255
2017-07-25T08:38:53.092Z,305
2017-07-25T08:40:03.148Z,305
2017-07-25T08:41:13.193Z,230
2017-07-25T08:42:23.216Z,245
2017-07-25T08:43:33.314Z,300
2017-07-25T08:44:43.678Z,245
2017-07-25T08:45:54.016Z,225
2017-07-25T08:47:04.402Z,205
2017-07-25T08:48:14.763Z,200
2017-07-25T08:49:25.170Z,210
2017-07-25T08:50:35.555Z,255
2017-07-25T08:51:45.921Z,175
2017-07-25T08:52:56.261Z,155
2017-07-25T08:54:06.625Z,150
2017-07-25T08:55:16.726Z,160
2017-07-25T08:56:26.778Z,165
2017-07-25T08:57:36.828Z,155
2017-07-25T08:58:46.850Z,160
2017-07-25T08:59:57.215Z,165
2017-07-25T09:01:07.559Z,175
2017-07-25T09:02:17.581Z,195
2017-07-25T09:03:27.924Z,205
2017-07-25T09:04:37.951Z,205
2017-07-25T09:05:48.302Z,210
2017-07-25T09:06:58.379Z,280
2017-07-25T09:08:08.745Z,310
2017-07-25T09:09:18.793Z,275
2017-07-25T09:10:29.131Z,275
2017-07-25T09:11:39.505Z,275
2017-07-25T09:12:49.859Z,260
2017-07-25T09:14:00.198Z,255
2017-07-25T09:15:10.560Z,255
2017-07-25T09:16:20.929Z,260
2017-07-25T09:17:30.975Z,250
2017-07-25T09:18:41.078Z,225
2017-07-25T09:19:51.428Z,220
2017-07-25T09:21:01.791Z,230
2017-07-25T09:22:12.202Z,245
2017-07-25T09:23:22.593Z,235
2017-07-25T09:24:32.955Z,220
2017-07-25T09:25:43.305Z,240
2017-07-25T09:26:53.727Z,330
2017-07-25T09:28:03.159Z,290
2017-07-25T09:29:13.543Z,255
2017-07-25T09:30:23.970Z,255
2017-07-25T09:31:34.336Z,255
2017-07-25T09:32:44.721Z,250
2017-07-25T09:33:55.080Z,250
2017-07-25T09:35:05.449Z,255
2017-07-25T09:36:15.476Z,315
2017-07-25T09:37:25.229Z,320
2017-07-25T09:38:35.280Z,260
2017-07-25T09:39:45.637Z,310
2017-07-25T09:40:55.369Z,290
2017-07-25T09:42:05.779Z,205
2017-07-25T09:43:15.877Z,190
2017-07-25T09:44:25.927Z,185
2017-07-25T09:45:36.294Z,200
2017-07-25T09:46:46.653Z,200
2017-07-25T09:47:57.029Z,205
2017-07-25T09:49:07.066Z,220
2017-07-25T09:50:17.419Z,305
2017-07-25T09:51:27.776Z,255
2017-07-25T09:52:38.140Z,305
2017-07-25T09:53:48.562Z,345
2017-07-25T09:54:58.936Z,335
2017-07-25T09:56:09.308Z,325
2017-07-25T09:57:19.677Z,305
2017-07-25T09:58:30.044Z,320
2017-07-25T09:59:40.449Z,325
2017-07-25T10:00:50.488Z,315
2017-07-25T10:02:00.831Z,320
2017-07-25T10:03:10.583Z,305
2017-07-25T10:04:20.944Z,300
2017-07-25T10:05:31.302Z,310
2017-07-25T10:06:41.671Z,235
2017-07-25T10:07:52.049Z,235
2017-07-25T10:09:02.096Z,320
2017-07-25T10:10:12.485Z,340
2017-07-25T10:11:22.589Z,270
2017-07-25T10:12:32.964Z,325
2017-07-25T10:13:43.356Z,310
2017-07-25T10:14:53.760Z,260
2017-07-25T10:16:03.838Z,260
2017-07-25T10:17:14.856Z,285
2017-07-25T10:18:25.505Z,230
2017-07-25T10:19:36.713Z,230
2017-07-25T10:20:47.641Z,280
2017-07-25T10:21:58.193Z,275
2017-07-25T10:23:08.602Z,275
2017-07-25T10:24:18.964Z,280
2017-07-25T10:25:29.355Z,275
2017-07-25T10:26:39.743Z,295
2017-07-25T10:27:49.807Z,295
2017-07-25T10:29:00.212Z,305
2017-07-25T10:30:09.976Z,315
2017-07-25T10:31:20.351Z,265
2017-07-25T10:32:30.412Z,280
2017-07-25T10:33:40.473Z,350
2017-07-25T10:34:50.917Z,285
2017-07-25T10:36:00.954Z,305
2017-07-25T10:37:11.315Z,315
2017-07-25T10:38:21.667Z,320
2017-07-25T10:39:31.706Z,305
2017-07-25T10:40:41.799Z,300
2017-07-25T10:41:52.172Z,305
2017-07-25T10:43:02.536Z,295
2017-07-25T10:44:12.872Z,300
2017-07-25T10:45:23.245Z,315
2017-07-25T10:46:33.356Z,320
2017-07-25T10:47:43.703Z,305
2017-07-25T10:48:53.738Z,315
2017-07-25T10:50:03.799Z,300
2017-07-25T10:51:13.850Z,290
2017-07-25T10:52:24.287Z,300
2017-07-25T10:53:34.324Z,345
2017-07-25T10:54:44.685Z,350
2017-07-25T10:55:55.049Z,360
2017-07-25T10:57:05.137Z,340
2017-07-25T10:58:15.228Z,350
2017-07-25T10:59:25.272Z,350
2017-07-25T11:00:35.626Z,350
2017-07-25T11:01:45.995Z,340
2017-07-25T11:02:56.359Z,345
2017-07-25T11:04:06.766Z,350
2017-07-25T11:05:16.805Z,355
2017-07-25T11:06:27.166Z,375
2017-07-25T11:07:37.225Z,380
2017-07-25T11:08:47.606Z,360
2017-07-25T11:09:57.693Z,385
2017-07-25T11:11:08.070Z,360
2017-07-25T11:12:18.427Z,365
2017-07-25T11:13:28.785Z,365
2017-07-25T11:14:38.826Z,355
2017-07-25T11:15:49.226Z,315
2017-07-25T11:16:59.603Z,365
2017-07-25T11:18:09.648Z,360
2017-07-25T11:19:20.001Z,365
2017-07-25T11:20:30.361Z,380
2017-07-25T11:21:40.426Z,375
2017-07-25T11:22:50.817Z,355
2017-07-25T11:24:00.854Z,335
2017-07-25T11:25:10.915Z,345
2017-07-25T11:26:21.300Z,370
2017-07-25T11:27:31.702Z,395
2017-07-25T11:28:42.079Z,410
2017-07-25T11:29:52.124Z,405
2017-07-25T11:31:02.468Z,405
2017-07-25T11:32:12.833Z,400
2017-07-25T11:33:23.241Z,395
2017-07-25T11:34:32.996Z,405
2017-07-25T11:35:43.344Z,410
2017-07-25T11:36:53.738Z,405
2017-07-25T11:38:04.117Z,380
2017-07-25T11:39:14.529Z,380
2017-07-25T11:40:24.888Z,395
2017-07-25T11:41:34.945Z,380
2017-07-25T11:42:45.009Z,370
2017-07-25T11:43:55.364Z,335
2017-07-25T11:45:05.779Z,335
2017-07-25T11:46:16.155Z,315
2017-07-25T11:47:26.514Z,295
2017-07-25T11:48:36.892Z,285
2017-07-25T11:49:47.264Z,285
2017-07-25T11:50:57.634Z,305
2017-07-25T11:52:08.002Z,310
2017-07-25T11:53:18.381Z,295
2017-07-25T11:54:28.751Z,290
2017-07-25T11:55:39.113Z,300
2017-07-25T11:56:49.228Z,325
2017-07-25T11:57:59.582Z,320
2017-07-25T11:59:09.959Z,320
2017-07-25T12:00:19.699Z,315
2017-07-25T12:01:30.046Z,330
2017-07-25T12:02:40.149Z,330
2017-07-25T12:03:50.506Z,345
2017-07-25T12:05:00.263Z,350
2017-07-25T12:06:10.321Z,350
2017-07-25T12:07:20.357Z,305
2017-07-25T12:08:30.729Z,335
2017-07-25T12:09:41.090Z,335
2017-07-25T12:10:51.433Z,335
2017-07-25T12:12:01.792Z,335
2017-07-25T12:13:11.858Z,335
2017-07-25T12:14:21.981Z,330
2017-07-25T12:15:32.350Z,315
2017-07-25T12:16:42.420Z,290
2017-07-25T12:17:52.781Z,275
2017-07-25T12:19:02.829Z,270
2017-07-25T12:20:13.255Z,300
2017-07-25T12:21:23.606Z,280
2017-07-25T12:22:33.952Z,265
2017-07-25T12:23:44.318Z,265
2017-07-25T12:24:54.722Z,285
2017-07-25T12:26:05.134Z,305
2017-07-25T12:27:15.496Z,310
2017-07-25T12:28:26.094Z,305
2017-07-25T12:29:36.471Z,315
2017-07-25T12:30:46.529Z,325
2017-07-25T12:31:56.929Z,335
2017-07-25T12:33:07.315Z,335
2017-07-25T12:34:17.676Z,335
2017-07-25T12:35:28.030Z,350
2017-07-25T12:36:38.088Z,255
2017-07-25T12:37:48.178Z,285
2017-07-25T12:38:57.919Z,265
2017-07-25T12:40:07.984Z,300
2017-07-25T12:41:18.339Z,295
2017-07-25T12:42:28.696Z,280
2017-07-25T12:43:39.097Z,255
2017-07-25T12:44:49.472Z,240
2017-07-25T12:45:59.840Z,250
2017-07-25T12:47:09.886Z,250
2017-07-25T12:48:19.943Z,285
2017-07-25T12:49:30.351Z,275
2017-07-25T12:50:40.402Z,260
2017-07-25T12:51:50.767Z,220
2017-07-25T12:53:01.147Z,215
2017-07-25T12:54:11.512Z,185
2017-07-25T12:55:21.598Z,225
2017-07-25T12:56:31.966Z,300
2017-07-25T12:57:42.326Z,305
2017-07-25T12:58:52.684Z,300
2017-07-25T13:00:03.047Z,245
2017-07-25T13:01:13.155Z,180
2017-07-25T13:02:23.516Z,255
2017-07-25T13:03:33.857Z,270
2017-07-25T13:04:43.287Z,195
2017-07-25T13:05:53.641Z,275
2017-07-25T13:07:04.051Z,240
2017-07-25T13:08:14.417Z,235
2017-07-25T13:09:24.781Z,140
2017-07-25T13:10:34.819Z,245
2017-07-25T13:11:45.192Z,250
2017-07-25T13:12:55.624Z,220
2017-07-25T13:14:06.012Z,245
2017-07-25T13:15:16.389Z,215
2017-07-25T13:16:26.766Z,230
2017-07-25T13:17:37.123Z,235
2017-07-25T13:18:47.551Z,240
2017-07-25T13:19:57.929Z,240
2017-07-25T13:21:08.324Z,240
2017-07-25T13:22:18.680Z,240
2017-07-25T13:23:28.421Z,235
2017-07-25T13:24:38.524Z,230
2017-07-25T13:25:48.876Z,230
2017-07-25T13:26:59.247Z,235
2017-07-25T13:28:09.627Z,230
2017-07-25T13:29:20.024Z,230
2017-07-25T13:30:30.422Z,225
2017-07-25T13:31:40.799Z,200
2017-07-25T13:32:51.164Z,205
2017-07-25T13:34:01.436Z,150
2017-07-25T13:35:11.545Z,140
2017-07-25T13:36:21.949Z,145
2017-07-25T13:37:32.320Z,150
2017-07-25T13:38:42.717Z,170
2017-07-25T13:39:53.096Z,190
2017-07-25T13:41:02.920Z,205
2017-07-25T13:42:13.355Z,225
2017-07-25T13:43:23.761Z,180
2017-07-25T13:44:34.139Z,150
2017-07-25T13:45:44.511Z,155
2017-07-25T13:46:54.882Z,195
2017-07-25T13:48:05.331Z,210
2017-07-25T13:49:15.405Z,200
2017-07-25T13:50:25.815Z,155
2017-07-25T13:51:36.282Z,160
2017-07-25T13:52:46.668Z,150
2017-07-25T13:53:57.112Z,180
2017-07-25T13:55:07.199Z,230
2017-07-25T13:56:16.958Z,145
2017-07-25T13:57:27.013Z,150
2017-07-25T13:58:37.423Z,240
2017-07-25T13:59:47.861Z,220
2017-07-25T14:00:58.244Z,250
2017-07-25T14:02:08.654Z,200
2017-07-25T14:03:19.035Z,260
2017-07-25T14:04:28.859Z,265
2017-07-25T14:05:38.988Z,255
2017-07-25T14:06:49.058Z,250
2017-07-25T14:07:59.118Z,260
2017-07-25T14:09:09.517Z,270
2017-07-25T14:10:19.630Z,260
2017-07-25T14:11:30.038Z,250
2017-07-25T14:12:40.203Z,250
2017-07-25T14:13:50.613Z,250
2017-07-25T14:15:00.982Z,245
2017-07-25T14:16:11.379Z,225
2017-07-25T14:17:21.815Z,215
2017-07-25T14:18:32.180Z,210
2017-07-25T14:19:42.552Z,210
2017-07-25T14:20:52.268Z,210
2017-07-25T14:22:02.361Z,205
2017-07-25T14:23:12.766Z,205
2017-07-25T14:24:23.213Z,110
2017-07-25T14:25:33.253Z,115
2017-07-25T14:26:43.635Z,195
2017-07-25T14:27:54.029Z,205
2017-07-25T14:29:04.455Z,200
2017-07-25T14:30:14.822Z,200
2017-07-25T14:31:25.212Z,195
2017-07-25T14:32:35.261Z,195
2017-07-25T14:33:45.629Z,190
2017-07-25T14:34:55.727Z,190
2017-07-25T14:36:05.792Z,190
2017-07-25T14:37:16.145Z,115
2017-07-25T14:38:26.523Z,120
2017-07-25T14:39:36.606Z,200
2017-07-25T14:40:47.049Z,195
2017-07-25T14:41:57.408Z,200
2017-07-25T14:43:07.775Z,200
2017-07-25T14:44:18.141Z,195
2017-07-25T14:45:28.267Z,195
2017-07-25T14:46:38.347Z,190
2017-07-25T14:47:48.732Z,190
2017-07-25T14:48:58.173Z,165
2017-07-25T14:50:08.538Z,185
2017-07-25T14:51:18.909Z,185
2017-07-25T14:52:29.361Z,185
2017-07-25T14:53:39.787Z,185
2017-07-25T14:54:50.199Z,190
2017-07-25T14:56:00.590Z,190
2017-07-25T14:57:10.637Z,190
2017-07-25T14:58:21.311Z,185
2017-07-25T14:59:31.714Z,190
2017-07-25T15:00:42.113Z,190
2017-07-25T15:01:52.494Z,200
2017-07-25T15:03:02.877Z,205
2017-07-25T15:04:13.398Z,210
2017-07-25T15:05:23.504Z,220
2017-07-25T15:06:33.913Z,230
2017-07-25T15:07:44.303Z,225
2017-07-25T15:08:54.349Z,225
2017-07-25T15:10:04.779Z,220
2017-07-25T15:11:15.143Z,210
2017-07-25T15:12:25.491Z,195
2017-07-25T15:13:35.897Z,185
2017-07-25T15:14:46.286Z,180
2017-07-25T15:15:56.781Z,175
2017-07-25T15:17:06.846Z,170
2017-07-25T15:18:17.218Z,165
2017-07-25T15:19:27.583Z,165
2017-07-25T15:20:37.980Z,165
2017-07-25T15:21:47.759Z,165
2017-07-25T15:22:58.142Z,165
2017-07-25T15:24:08.518Z,165
2017-07-25T15:25:18.899Z,160
2017-07-25T15:26:29.256Z,160
2017-07-25T15:27:39.667Z,160
2017-07-25T15:28:50.024Z,160
2017-07-25T15:30:00.430Z,160
2017-07-25T15:31:10.882Z,160
2017-07-25T15:32:21.249Z,160
2017-07-25T15:33:31.655Z,155
2017-07-25T15:34:42.020Z,160
2017-07-25T15:35:52.385Z,155
2017-07-25T15:37:02.456Z,160
2017-07-25T15:38:12.527Z,160
2017-07-25T15:39:22.932Z,160
2017-07-25T15:40:33.024Z,155
2017-07-25T15:41:43.394Z,155
2017-07-25T15:42:53.816Z,155
2017-07-25T15:44:04.223Z,155
2017-07-25T15:45:14.681Z,155
2017-07-25T15:46:25.044Z,155
2017-07-25T15:47:35.394Z,155
2017-07-25T15:48:45.759Z,155
2017-07-25T15:49:56.194Z,155
2017-07-25T15:51:06.618Z,155
2017-07-25T15:52:17.016Z,155
2017-07-25T15:53:27.415Z,160
2017-07-25T15:54:37.783Z,155
2017-07-25T15:55:48.166Z,155
2017-07-25T15:56:58.622Z,155
2017-07-25T15:58:08.963Z,155
2017-07-25T15:59:19.325Z,155
2017-07-25T16:00:29.701Z,150
2017-07-25T16:01:39.761Z,150
2017-07-25T16:02:50.219Z,150
2017-07-25T16:04:00.290Z,145
2017-07-25T16:05:10.672Z,145
2017-07-25T16:06:21.050Z,145
2017-07-25T16:07:31.147Z,145
2017-07-25T16:08:41.580Z,140
2017-07-25T16:09:51.641Z,135
2017-07-25T16:11:01.743Z,135
2017-07-25T16:12:12.130Z,135
2017-07-25T16:13:22.160Z,130
2017-07-25T16:14:32.302Z,130
2017-07-25T16:15:42.691Z,130
2017-07-25T16:16:53.076Z,125
2017-07-25T16:18:03.447Z,125
2017-07-25T16:19:13.824Z,125
2017-07-25T16:20:24.245Z,125
2017-07-25T16:21:34.617Z,125
2017-07-25T16:22:44.980Z,125
2017-07-25T16:23:55.030Z,120
2017-07-25T16:25:05.092Z,120
2017-07-25T16:26:15.220Z,120
2017-07-25T16:27:25.573Z,120
2017-07-25T16:28:35.943Z,115
2017-07-25T16:29:45.707Z,115
2017-07-25T16:30:56.069Z,115
2017-07-25T16:32:06.479Z,110
2017-07-25T16:33:16.855Z,110
2017-07-25T16:34:27.233Z,110
2017-07-25T16:35:37.621Z,110
2017-07-25T16:36:48.101Z,105
2017-07-25T16:37:58.523Z,105
2017-07-25T16:39:08.879Z,105
2017-07-25T16:40:19.265Z,105
2017-07-25T16:41:29.630Z,105
2017-07-25T16:42:40.029Z,105
2017-07-25T16:43:50.143Z,100
2017-07-25T16:45:00.515Z,100
2017-07-25T16:46:10.882Z,100
2017-07-25T16:47:21.252Z,100
2017-07-25T16:48:31.595Z,100
2017-07-25T16:49:42.053Z,100
2017-07-25T16:50:52.424Z,100
2017-07-25T16:52:02.793Z,100